createdAt,value
2022-09-25T00:01:10.764Z,45.66
2022-09-25T00:03:40.845Z,45.75
2022-09-25T00:06:11.117Z,45.75
2022-09-25T00:08:40.103Z,45.88
2022-09-25T00:11:09.829Z,45.43
2022-09-25T00:13:38.226Z,45.87
2022-09-25T00:16:06.489Z,45.74
2022-09-25T00:18:51.976Z,46.00
2022-09-25T00:21:21.191Z,45.34
2022-09-25T00:23:48.997Z,45.41
2022-09-25T00:26:17.993Z,45.66
2022-09-25T00:28:45.772Z,45.73
2022-09-25T00:31:21.225Z,45.66
2022-09-25T00:33:49.129Z,45.62
2022-09-25T00:36:16.911Z,45.36
2022-09-25T00:38:46.244Z,45.43
2022-09-25T00:41:14.056Z,45.52
2022-09-25T00:43:44.527Z,45.54
2022-09-25T00:46:16.755Z,45.89
2022-09-25T00:48:50.707Z,45.53
2022-09-25T00:51:29.777Z,46.03
2022-09-25T00:54:04.432Z,46.04
2022-09-25T00:56:37.438Z,45.98
2022-09-25T00:59:06.830Z,45.36
2022-09-25T01:01:34.789Z,45.35
2022-09-25T01:04:03.760Z,45.79
2022-09-25T01:06:33.412Z,45.89
2022-09-25T01:09:03.188Z,45.89
2022-09-25T01:11:32.062Z,45.92
2022-09-25T01:14:03.105Z,45.93
2022-09-25T01:16:38.477Z,45.42
2022-09-25T01:19:18.191Z,45.99
2022-09-25T01:21:52.767Z,45.39
2022-09-25T01:25:03.755Z,46.00
2022-09-25T01:27:59.454Z,45.55
2022-09-25T01:30:34.675Z,45.68
2022-09-25T01:33:08.873Z,45.85
2022-09-25T01:35:42.980Z,45.71
2022-09-25T01:38:21.123Z,45.82
2022-09-25T01:40:57.568Z,45.30
2022-09-25T01:43:32.095Z,45.66
2022-09-25T01:46:05.798Z,45.77
2022-09-25T01:48:34.756Z,45.16
2022-09-25T01:51:06.565Z,45.01
2022-09-25T01:53:39.284Z,45.57
2022-09-25T01:56:12.474Z,45.21
2022-09-25T01:58:44.178Z,45.68
2022-09-25T02:01:23.651Z,45.70
2022-09-25T02:03:57.127Z,45.59
2022-09-25T02:06:26.181Z,45.31
2022-09-25T02:12:00.373Z,46.10
2022-09-25T02:14:31.930Z,45.42
2022-09-25T02:17:04.094Z,45.98
2022-09-25T02:19:49.628Z,46.14
2022-09-25T02:22:22.384Z,46.06
2022-09-25T02:24:58.882Z,46.27
2022-09-25T02:27:28.638Z,45.72
2022-09-25T02:29:58.212Z,45.81
2022-09-25T02:32:30.766Z,46.73
2022-09-25T02:35:00.908Z,46.00
2022-09-25T02:37:29.613Z,46.48
2022-09-25T02:40:00.302Z,46.52
2022-09-25T02:42:36.564Z,46.98
2022-09-25T02:45:13.451Z,47.13
2022-09-25T02:47:51.026Z,46.73
2022-09-25T02:50:25.035Z,47.05
2022-09-25T02:52:59.982Z,46.78
2022-09-25T02:55:35.586Z,47.00
2022-09-25T02:58:09.270Z,46.80
2022-09-25T03:00:39.590Z,46.27
2022-09-25T03:03:13.747Z,46.36
2022-09-25T03:05:42.426Z,45.91
2022-09-25T03:08:28.489Z,46.55
2022-09-25T03:10:56.379Z,46.05
2022-09-25T03:13:31.327Z,46.48
2022-09-25T03:16:01.999Z,46.55
2022-09-25T03:18:32.166Z,46.03
2022-09-25T03:21:00.299Z,46.10
2022-09-25T03:23:28.034Z,45.82
2022-09-25T03:25:56.543Z,46.23
2022-09-25T03:28:24.607Z,45.79
2022-09-25T03:31:01.106Z,45.90
2022-09-25T03:33:32.327Z,45.85
2022-09-25T03:36:10.800Z,46.20
2022-09-25T03:38:38.949Z,45.75
2022-09-25T03:41:09.376Z,45.92
2022-09-25T03:43:37.518Z,46.09
2022-09-25T03:46:05.969Z,45.59
2022-09-25T03:48:36.033Z,45.72
2022-09-25T03:51:04.574Z,46.09
2022-09-25T03:53:33.370Z,45.72
2022-09-25T03:56:01.641Z,46.13
2022-09-25T03:58:29.766Z,45.74
2022-09-25T04:00:58.126Z,45.61
2022-09-25T04:03:27.924Z,45.88
2022-09-25T04:05:57.708Z,45.72
2022-09-25T04:08:26.973Z,45.85
2022-09-25T04:10:56.257Z,46.05
2022-09-25T04:13:24.547Z,45.52
2022-09-25T04:15:52.338Z,45.61
2022-09-25T04:18:20.594Z,45.55
2022-09-25T04:20:48.689Z,45.67
2022-09-25T04:23:18.474Z,45.40
2022-09-25T04:25:46.521Z,45.39
2022-09-25T04:28:14.267Z,46.05
2022-09-25T04:30:42.018Z,45.98
2022-09-25T04:33:27.978Z,45.68
2022-09-25T04:35:56.546Z,45.40
2022-09-25T04:38:25.782Z,45.84
2022-09-25T04:40:53.665Z,45.70
2022-09-25T04:43:21.574Z,46.01
2022-09-25T04:45:50.635Z,45.80
2022-09-25T04:48:18.453Z,45.92
2022-09-25T04:50:49.418Z,45.53
2022-09-25T04:53:17.448Z,45.63
2022-09-25T04:55:48.066Z,45.89
2022-09-25T04:58:15.853Z,45.34
2022-09-25T05:00:43.610Z,45.43
2022-09-25T05:03:11.489Z,45.35
2022-09-25T05:05:39.333Z,45.48
2022-09-25T05:08:07.394Z,45.92
2022-09-25T05:10:35.930Z,45.87
2022-09-25T05:13:06.192Z,45.61
2022-09-25T05:15:34.606Z,45.94
2022-09-25T05:18:03.769Z,45.86
2022-09-25T05:20:31.654Z,45.83
2022-09-25T05:23:00.141Z,45.55
2022-09-25T05:25:28.987Z,46.22
2022-09-25T05:27:59.461Z,45.70
2022-09-25T05:30:30.773Z,45.95
2022-09-25T05:32:59.288Z,46.31
2022-09-25T05:35:29.370Z,46.18
2022-09-25T05:37:57.198Z,46.11
2022-09-25T05:40:25.368Z,46.02
2022-09-25T05:42:55.136Z,46.08
2022-09-25T05:45:24.098Z,46.02
2022-09-25T05:48:02.948Z,45.94
2022-09-25T05:50:32.285Z,45.88
2022-09-25T05:53:00.812Z,45.64
2022-09-25T05:55:29.349Z,45.92
2022-09-25T05:58:01.184Z,45.86
2022-09-25T06:00:29.134Z,45.85
2022-09-25T06:02:56.898Z,46.25
2022-09-25T06:05:26.137Z,45.67
2022-09-25T06:07:54.545Z,45.76
2022-09-25T06:10:22.604Z,45.88
2022-09-25T06:12:50.421Z,46.15
2022-09-25T06:15:18.217Z,45.69
2022-09-25T06:17:45.975Z,46.14
2022-09-25T06:20:16.273Z,46.21
2022-09-25T06:22:45.691Z,46.22
2022-09-25T06:25:15.734Z,46.35
2022-09-25T06:27:43.658Z,46.36
2022-09-25T06:30:12.265Z,46.32
2022-09-25T06:32:40.038Z,46.54
2022-09-25T06:35:08.187Z,46.15
2022-09-25T06:37:35.935Z,46.20
2022-09-25T06:40:05.675Z,46.82
2022-09-25T06:42:35.199Z,46.78
2022-09-25T06:45:03.045Z,47.51
2022-09-25T06:47:30.792Z,47.73
2022-09-25T06:49:58.546Z,48.20
2022-09-25T06:52:27.661Z,48.26
2022-09-25T06:54:55.425Z,48.44
2022-09-25T06:57:24.559Z,47.50
2022-09-25T06:59:52.300Z,47.50
2022-09-25T07:02:40.001Z,47.03
2022-09-25T07:05:08.780Z,47.12
2022-09-25T07:07:36.567Z,46.42
2022-09-25T07:10:04.799Z,45.31
2022-09-25T07:12:34.531Z,44.55
2022-09-25T07:15:02.389Z,43.55
2022-09-25T07:17:30.137Z,42.18
2022-09-25T07:19:57.924Z,41.71
2022-09-25T07:22:25.637Z,41.03
2022-09-25T07:24:53.486Z,39.93
2022-09-25T07:27:21.185Z,39.27
2022-09-25T07:29:50.294Z,39.06
2022-09-25T07:32:18.062Z,38.93
2022-09-25T07:34:46.192Z,39.20
2022-09-25T07:37:13.920Z,39.05
2022-09-25T07:39:41.931Z,39.08
2022-09-25T07:42:09.701Z,38.74
2022-09-25T07:44:38.701Z,38.68
2022-09-25T07:47:08.899Z,38.76
2022-09-25T07:49:36.841Z,38.79
2022-09-25T07:52:06.128Z,39.08
2022-09-25T07:54:34.551Z,39.92
2022-09-25T07:57:02.317Z,40.30
2022-09-25T07:59:30.140Z,39.98
2022-09-25T08:01:59.002Z,39.83
2022-09-25T08:04:28.248Z,39.36
2022-09-25T08:06:55.981Z,39.32
2022-09-25T08:09:23.780Z,39.51
2022-09-25T08:11:51.773Z,38.84
2022-09-25T08:14:22.199Z,39.17
2022-09-25T08:16:55.793Z,38.85
2022-09-25T08:19:24.138Z,38.47
2022-09-25T08:21:53.585Z,38.95
2022-09-25T08:24:21.379Z,39.15
2022-09-25T08:26:50.176Z,38.80
2022-09-25T08:29:18.525Z,39.11
2022-09-25T08:31:46.484Z,38.77
2022-09-25T08:34:39.584Z,38.79
2022-09-25T08:37:07.645Z,39.21
2022-09-25T08:39:35.460Z,38.74
2022-09-25T08:42:03.615Z,38.56
2022-09-25T08:44:37.334Z,38.49
2022-09-25T08:47:40.478Z,38.15
2022-09-25T08:50:12.922Z,36.62
2022-09-25T08:52:45.310Z,36.68
2022-09-25T08:55:18.051Z,36.43
2022-09-25T08:57:47.301Z,36.45
2022-09-25T09:00:21.177Z,35.88
2022-09-25T09:02:54.582Z,35.90
2022-09-25T09:05:27.644Z,36.61
2022-09-25T09:08:01.480Z,35.81
2022-09-25T09:10:35.102Z,36.35
2022-09-25T09:13:21.889Z,35.90
2022-09-25T09:15:57.239Z,35.96
2022-09-25T09:18:36.003Z,36.42
2022-09-25T09:21:11.624Z,34.67
2022-09-25T09:23:50.814Z,35.18
2022-09-25T09:26:25.998Z,35.59
2022-09-25T09:29:20.972Z,35.33
2022-09-25T09:31:58.083Z,36.44
2022-09-25T09:35:04.159Z,35.56
2022-09-25T09:37:44.885Z,34.98
2022-09-25T09:40:25.334Z,34.97
2022-09-25T09:43:06.887Z,35.50
2022-09-25T09:45:45.234Z,35.46
2022-09-25T09:48:20.174Z,34.96
2022-09-25T09:50:53.094Z,34.69
2022-09-25T09:53:34.171Z,32.35
2022-09-25T09:56:09.366Z,33.13
2022-09-25T09:58:45.897Z,33.13
2022-09-25T10:01:36.500Z,33.79
2022-09-25T10:04:07.109Z,33.43
2022-09-25T10:06:39.276Z,34.08
2022-09-25T10:09:08.843Z,34.76
2022-09-25T10:11:38.791Z,33.90
2022-09-25T10:14:07.038Z,34.75
2022-09-25T10:16:37.019Z,34.31
2022-09-25T10:19:11.914Z,33.76
2022-09-25T10:21:43.334Z,33.96
2022-09-25T10:24:11.335Z,33.65
2022-09-25T10:26:41.537Z,33.11
2022-09-25T10:29:27.823Z,32.66
2022-09-25T10:32:00.955Z,33.12
2022-09-25T10:34:30.101Z,33.83
2022-09-25T10:36:58.731Z,33.31
2022-09-25T10:39:44.170Z,32.38
2022-09-25T10:42:38.767Z,32.27
2022-09-25T10:45:41.365Z,31.73
2022-09-25T10:48:48.504Z,31.66
2022-09-25T10:51:18.556Z,32.41
2022-09-25T10:53:47.348Z,32.42
2022-09-25T10:56:19.364Z,32.23
2022-09-25T10:58:55.220Z,31.63
2022-09-25T11:01:31.806Z,31.50
2022-09-25T11:04:00.614Z,31.86
2022-09-25T11:06:32.998Z,31.94
2022-09-25T11:09:09.015Z,31.64
2022-09-25T11:11:39.379Z,31.89
2022-09-25T11:14:18.816Z,30.91
2022-09-25T11:16:49.708Z,31.29
2022-09-25T11:19:23.524Z,30.15
2022-09-25T11:22:00.278Z,29.61
2022-09-25T11:24:40.455Z,30.14
2022-09-25T11:27:15.293Z,30.69
2022-09-25T11:29:54.467Z,30.12
2022-09-25T11:32:31.008Z,30.48
2022-09-25T11:35:16.177Z,30.47
2022-09-25T11:37:52.565Z,30.60
2022-09-25T11:40:49.392Z,30.43
2022-09-25T11:43:26.092Z,30.79
2022-09-25T11:46:08.277Z,30.25
2022-09-25T11:48:47.138Z,30.13
2022-09-25T11:51:24.994Z,29.77
2022-09-25T11:54:31.993Z,29.78
2022-09-25T11:57:01.897Z,29.83
2022-09-25T11:59:44.750Z,29.07
2022-09-25T12:02:27.910Z,29.76
2022-09-25T12:05:10.697Z,29.23
2022-09-25T12:07:52.664Z,30.70
2022-09-25T12:10:37.465Z,29.38
2022-09-25T12:13:13.471Z,29.33
2022-09-25T12:15:53.672Z,28.90
2022-09-25T12:18:43.684Z,28.64
2022-09-25T12:21:17.623Z,28.62
2022-09-25T12:23:51.702Z,28.73
2022-09-25T12:26:30.621Z,29.11
2022-09-25T12:29:14.070Z,29.11
2022-09-25T12:31:53.556Z,29.03
2022-09-25T12:34:40.351Z,29.14
2022-09-25T12:37:23.105Z,28.83
2022-09-25T12:39:59.120Z,29.01
2022-09-25T12:42:38.019Z,28.77
2022-09-25T12:45:17.349Z,28.25
2022-09-25T12:47:51.752Z,28.77
2022-09-25T12:50:30.543Z,26.66
2022-09-25T12:53:06.011Z,28.04
2022-09-25T12:55:40.071Z,28.14
2022-09-25T12:58:18.540Z,28.57
2022-09-25T13:00:50.534Z,28.15
2022-09-25T13:03:25.192Z,27.96
2022-09-25T13:06:17.417Z,27.82
2022-09-25T13:08:52.888Z,28.01
2022-09-25T13:11:35.992Z,28.04
2022-09-25T13:14:10.465Z,27.94
2022-09-25T13:16:39.907Z,27.07
2022-09-25T13:19:12.851Z,26.99
2022-09-25T13:21:43.951Z,27.60
2022-09-25T13:24:15.698Z,27.45
2022-09-25T13:26:47.910Z,27.34
2022-09-25T13:29:24.132Z,26.95
2022-09-25T13:31:53.465Z,27.68
2022-09-25T13:34:24.470Z,27.20
2022-09-25T13:36:57.401Z,27.44
2022-09-25T13:39:50.628Z,27.25
2022-09-25T13:42:25.623Z,26.83
2022-09-25T13:45:07.739Z,26.87
2022-09-25T13:47:58.977Z,26.21
2022-09-25T13:50:34.758Z,27.60
2022-09-25T13:53:24.257Z,26.73
2022-09-25T13:56:19.607Z,27.23
2022-09-25T13:59:04.198Z,27.00
2022-09-25T14:01:45.331Z,26.85
2022-09-25T14:04:24.283Z,26.96
2022-09-25T14:07:01.395Z,27.47
2022-09-25T14:09:32.760Z,27.18
2022-09-25T14:12:08.879Z,26.63
2022-09-25T14:14:45.454Z,26.59
2022-09-25T14:17:17.035Z,26.77
2022-09-25T14:19:48.942Z,26.69
2022-09-25T14:22:24.745Z,26.57
2022-09-25T14:24:54.114Z,26.97
2022-09-25T14:27:26.499Z,26.44
2022-09-25T14:30:05.135Z,26.07
2022-09-25T14:32:55.757Z,26.40
2022-09-25T14:35:36.029Z,26.45
2022-09-25T14:38:37.286Z,26.91
2022-09-25T14:41:39.480Z,26.93
2022-09-25T14:44:32.431Z,27.03
2022-09-25T14:47:00.493Z,27.68
2022-09-25T14:49:30.940Z,27.23
2022-09-25T14:52:02.840Z,27.62
2022-09-25T14:54:36.590Z,27.56
2022-09-25T14:57:07.530Z,27.01
2022-09-25T14:59:42.399Z,26.78
2022-09-25T15:02:18.786Z,26.36
2022-09-25T15:04:46.943Z,26.98
2022-09-25T15:07:18.849Z,26.79
2022-09-25T15:09:48.509Z,26.55
2022-09-25T15:12:21.334Z,26.41
2022-09-25T15:15:04.081Z,26.55
2022-09-25T15:17:31.578Z,27.25
2022-09-25T15:20:04.017Z,26.87
2022-09-25T15:26:19.446Z,27.33
2022-09-25T15:28:49.477Z,27.02
2022-09-25T15:31:17.565Z,27.24
2022-09-25T15:33:45.659Z,27.24
2022-09-25T15:36:20.207Z,26.90
2022-09-25T15:39:00.098Z,26.77
2022-09-25T15:41:28.882Z,27.20
2022-09-25T15:44:20.129Z,26.81
2022-09-25T15:46:51.619Z,27.02
2022-09-25T15:49:25.561Z,27.12
2022-09-25T15:52:00.016Z,27.65
2022-09-25T15:54:34.564Z,27.57
2022-09-25T15:57:06.178Z,27.46
2022-09-25T16:00:02.323Z,27.34
2022-09-25T16:02:53.613Z,27.56
2022-09-25T16:05:32.881Z,27.05
2022-09-25T16:08:17.589Z,27.28
2022-09-25T16:10:50.149Z,27.62
2022-09-25T16:13:21.979Z,27.26
2022-09-25T16:15:54.627Z,27.44
2022-09-25T16:18:35.340Z,27.15
2022-09-25T16:21:20.655Z,27.16
2022-09-25T16:23:56.130Z,27.29
2022-09-25T16:26:27.523Z,27.38
2022-09-25T16:29:03.497Z,27.36
2022-09-25T16:31:36.436Z,27.73
2022-09-25T16:34:05.764Z,28.08
2022-09-25T16:36:43.693Z,28.03
2022-09-25T16:39:41.247Z,27.99
2022-09-25T16:42:31.315Z,28.54
2022-09-25T16:45:05.524Z,28.34
2022-09-25T16:47:35.179Z,28.38
2022-09-25T16:50:03.967Z,28.92
2022-09-25T16:53:03.645Z,28.55
2022-09-25T16:55:38.147Z,28.75
2022-09-25T16:58:09.832Z,28.90
2022-09-25T17:00:37.753Z,28.38
2022-09-25T17:03:07.154Z,28.70
2022-09-25T17:05:36.355Z,28.28
2022-09-25T17:08:17.997Z,28.06
2022-09-25T17:10:52.626Z,28.31
2022-09-25T17:13:27.913Z,28.20
2022-09-25T17:16:00.359Z,28.28
2022-09-25T17:21:48.282Z,27.93
2022-09-25T17:24:24.377Z,28.16
2022-09-25T17:26:54.805Z,28.39
2022-09-25T17:29:25.162Z,28.43
2022-09-25T17:32:02.567Z,28.30
2022-09-25T17:34:32.993Z,28.42
2022-09-25T17:37:14.651Z,28.46
2022-09-25T17:39:43.616Z,28.34
2022-09-25T17:42:23.494Z,28.50
2022-09-25T17:45:24.227Z,28.36
2022-09-25T17:47:56.680Z,28.44
2022-09-25T17:50:35.477Z,28.57
2022-09-25T17:53:20.335Z,28.67
2022-09-25T17:55:54.342Z,28.74
2022-09-25T17:58:26.424Z,28.92
2022-09-25T18:01:00.473Z,29.01
2022-09-25T18:03:30.327Z,28.68
2022-09-25T18:05:59.956Z,28.87
2022-09-25T18:08:27.868Z,28.91
2022-09-25T18:10:58.819Z,28.95
2022-09-25T18:13:26.941Z,28.72
2022-09-25T18:15:57.215Z,29.01
2022-09-25T18:18:25.803Z,28.98
2022-09-25T18:21:11.313Z,29.03
2022-09-25T18:23:40.602Z,29.13
2022-09-25T18:26:10.061Z,29.45
2022-09-25T18:28:38.226Z,29.65
2022-09-25T18:31:06.367Z,29.93
2022-09-25T18:33:34.594Z,29.60
2022-09-25T18:36:02.780Z,29.64
2022-09-25T18:38:31.333Z,29.70
2022-09-25T18:41:03.512Z,30.08
2022-09-25T18:43:31.793Z,29.83
2022-09-25T18:46:01.181Z,29.77
2022-09-25T18:48:29.401Z,29.88
2022-09-25T18:50:57.171Z,30.07
2022-09-25T18:53:25.632Z,30.49
2022-09-25T18:55:54.864Z,30.63
2022-09-25T18:58:24.029Z,30.63
2022-09-25T19:00:51.914Z,30.20
2022-09-25T19:03:19.649Z,30.53
2022-09-25T19:05:58.258Z,30.90
2022-09-25T19:08:26.110Z,30.90
2022-09-25T19:10:53.951Z,30.82
2022-09-25T19:13:22.026Z,30.95
2022-09-25T19:15:51.186Z,30.54
2022-09-25T19:18:19.146Z,30.68
2022-09-25T19:20:48.469Z,31.05
2022-09-25T19:23:16.317Z,31.26
2022-09-25T19:25:53.614Z,31.42
2022-09-25T19:28:23.601Z,31.19
2022-09-25T19:31:00.111Z,31.23
2022-09-25T19:33:31.185Z,31.56
2022-09-25T19:35:59.355Z,31.52
2022-09-25T19:38:27.583Z,31.30
2022-09-25T19:40:55.502Z,31.80
2022-09-25T19:43:24.133Z,31.93
2022-09-25T19:45:53.566Z,31.55
2022-09-25T19:48:24.019Z,31.75
2022-09-25T19:50:52.032Z,32.08
2022-09-25T19:53:19.843Z,32.15
2022-09-25T19:55:51.630Z,32.57
2022-09-25T19:58:23.121Z,32.35
2022-09-25T20:00:51.840Z,32.51
2022-09-25T20:03:20.181Z,32.52
2022-09-25T20:05:49.617Z,32.27
2022-09-25T20:08:17.410Z,32.46
2022-09-25T20:10:45.607Z,32.26
2022-09-25T20:13:14.482Z,32.15
2022-09-25T20:15:44.942Z,32.79
2022-09-25T20:18:12.773Z,32.42
2022-09-25T20:20:40.625Z,32.96
2022-09-25T20:23:10.417Z,32.86
2022-09-25T20:25:39.114Z,32.48
2022-09-25T20:28:06.899Z,32.78
2022-09-25T20:30:35.638Z,32.82
2022-09-25T20:33:04.749Z,33.20
2022-09-25T20:35:32.555Z,32.89
2022-09-25T20:38:00.353Z,33.56
2022-09-25T20:40:29.630Z,33.48
2022-09-25T20:42:57.374Z,33.22
2022-09-25T20:45:25.190Z,33.17
2022-09-25T20:47:55.352Z,33.58
2022-09-25T20:50:23.134Z,33.51
2022-09-25T20:52:51.000Z,33.27
2022-09-25T20:55:20.063Z,33.91
2022-09-25T20:57:49.208Z,34.07
2022-09-25T21:00:19.423Z,33.42
2022-09-25T21:02:47.592Z,33.82
2022-09-25T21:05:15.550Z,34.18
2022-09-25T21:07:43.397Z,33.70
2022-09-25T21:10:11.262Z,33.75
2022-09-25T21:12:39.016Z,33.79
2022-09-25T21:15:09.238Z,34.40
2022-09-25T21:17:36.978Z,33.95
2022-09-25T21:20:05.152Z,34.07
2022-09-25T21:22:32.935Z,34.23
2022-09-25T21:25:00.708Z,34.05
2022-09-25T21:27:30.779Z,34.49
2022-09-25T21:29:58.635Z,34.46
2022-09-25T21:32:30.098Z,34.68
2022-09-25T21:34:57.883Z,34.55
2022-09-25T21:37:25.681Z,34.98
2022-09-25T21:39:53.489Z,34.48
2022-09-25T21:42:22.065Z,34.71
2022-09-25T21:44:50.212Z,34.60
2022-09-25T21:47:19.107Z,34.75
2022-09-25T21:49:48.907Z,34.97
2022-09-25T21:52:16.648Z,34.89
2022-09-25T21:54:44.383Z,35.37
2022-09-25T21:57:12.162Z,34.94
2022-09-25T21:59:41.242Z,34.92
2022-09-25T22:02:09.046Z,35.52
2022-09-25T22:04:36.841Z,35.51
2022-09-25T22:07:06.165Z,35.64
2022-09-25T22:09:34.076Z,35.12
2022-09-25T22:12:02.126Z,35.58
2022-09-25T22:14:29.984Z,35.56
2022-09-25T22:16:57.790Z,35.33
2022-09-25T22:19:27.996Z,35.58
2022-09-25T22:21:57.853Z,35.55
2022-09-25T22:24:27.641Z,35.51
2022-09-25T22:26:56.808Z,35.24
2022-09-25T22:29:24.852Z,35.78
2022-09-25T22:31:53.019Z,35.23
2022-09-25T22:34:22.591Z,35.64
2022-09-25T22:36:56.257Z,35.39
2022-09-25T22:39:27.277Z,35.27
2022-09-25T22:41:56.530Z,35.79
2022-09-25T22:44:24.536Z,35.91
2022-09-25T22:46:52.369Z,35.56
2022-09-25T22:49:20.189Z,36.06
2022-09-25T22:51:47.935Z,35.60
2022-09-25T22:54:16.774Z,36.03
2022-09-25T22:56:45.971Z,35.77
2022-09-25T22:59:16.092Z,36.05
2022-09-25T23:01:46.523Z,36.38
2022-09-25T23:04:16.070Z,35.88
2022-09-25T23:06:44.069Z,36.41
2022-09-25T23:09:14.071Z,36.41
2022-09-25T23:11:42.303Z,36.33
2022-09-25T23:14:16.800Z,36.97
2022-09-25T23:16:45.648Z,36.74
2022-09-25T23:19:13.949Z,36.99
2022-09-25T23:21:42.631Z,36.50
2022-09-25T23:24:13.362Z,37.39
2022-09-25T23:26:41.213Z,36.70
2022-09-25T23:29:09.586Z,37.21
2022-09-25T23:31:38.717Z,37.00
2022-09-25T23:34:06.493Z,37.31
2022-09-25T23:36:36.053Z,37.70
2022-09-25T23:39:05.499Z,37.44
2022-09-25T23:41:35.706Z,37.36
2022-09-25T23:44:05.757Z,37.73
2022-09-25T23:46:36.234Z,37.67
2022-09-25T23:49:05.873Z,37.78
2022-09-25T23:51:34.114Z,37.67
2022-09-25T23:54:02.982Z,37.79
2022-09-25T23:56:33.513Z,37.96
2022-09-25T23:59:02.224Z,37.92
